CYVRRJAA

Guest
Details From CYVR - Vancouver Intl
To RJAA - Narita Intl
Flight Number -
Tags Generated
Created
Modified
Stats Distance 4,051 nm / 7,502 km
Max Altitude 0 ft / 0 m
Waypoints 5
Social Downloads 0
Likes 0
Share VATSIM

Download

Looking for another format? Having issues loading an existing format? Contact us
Advertisement - Login to hide

Notes

Generated

Route

CYVR SIMSU MORDI HUT14 RJAA

ID Type Via Altitude Latitude Longitude Leg Dist Tot Dist Heading (true) Name
O CYVR APT - 0 ft / 0 m 49.20509˚ -123.20131˚ - 0 nm - -
SIMSU FIX - 0 ft / 0 m 50.78222˚ -128.42694˚ 222 nm 222 nm 297° / 293° -
MORDI FIX - 0 ft / 0 m 54.88053˚ -165.05422˚ 1335 nm 1558 nm 295° / 265° -
HUT14 FIX - 0 ft / 0 m 36.04010˚ 140.61052˚ 2474 nm 4032 nm 266° / 225° -
O RJAA APT - 0 ft / 0 m 35.80271˚ 140.37991˚ 18 nm 4050 nm 218° / 218° -

Altitude Profile

Advertisement - Login to hide

Weather


0- 5 10 15 20 25 30 35+ Temperature / ° C

Clouds and Precipitation
Forecast for 2017-12-14 06:00 UTC. Updated an hour ago

Ground ~20,000 ft ~40,000 ft Winds

CYVR

Details ICAO CYVR (YVR)
Name Vancouver Intl
Region Canada
Timezone America/Vancouver (UTC-8.0)
Stats Elevation 14 ft / 4 m (AMSL)
Location 49.192331° -123.187993°
Runways 4
Magnetic Variation 16.266° E

METAR

CYVR 140200Z 32004KT 30SM FEW180 BKN210 OVC250 03/02 A3041 RMK AC2CC3CS3 SLP300

Decode

TAF

TAF CYVR 132339Z 1400/1506 31008KT P6SM BKN240 BECMG 1406/1408 VRB03KT RMK NXT FCST BY 140300Z

Decode

Departure Runways

ID Width Length Bearing (true) Bearing (mag) Surface Threshold Offset Overrun Length
08 75 ft / 23 m 3,497 ft / 1,066 m 100.01° 83.74° Concrete 0 ft / 0 m 0 ft / 0 m
08L 200 ft / 61 m 9,910 ft / 3,021 m 99.80° 83.53° Concrete 0 ft / 0 m 0 ft / 0 m
08R 200 ft / 61 m 11,491 ft / 3,502 m 99.94° 83.67° Asphalt 0 ft / 0 m 0 ft / 0 m
12 200 ft / 61 m 7,291 ft / 2,222 m 141.91° 125.64° Asphalt 0 ft / 0 m 0 ft / 0 m
26 75 ft / 23 m 3,497 ft / 1,066 m 280.02° 263.75° Concrete 0 ft / 0 m 0 ft / 0 m
26L 200 ft / 61 m 11,491 ft / 3,502 m 279.97° 263.70° Asphalt 0 ft / 0 m 0 ft / 0 m
26R 200 ft / 61 m 9,910 ft / 3,021 m 279.83° 263.56° Concrete 0 ft / 0 m 0 ft / 0 m
30 200 ft / 61 m 7,291 ft / 2,222 m 321.93° 305.66° Asphalt 0 ft / 0 m 0 ft / 0 m

RJAA

Details ICAO RJAA (NRT)
Name NARITA INTL
Region Japan
Timezone Asia/Tokyo (UTC+9.0)
Stats Elevation 141 ft / 43 m (AMSL)
Location 35.776552° 140.382770°
Runways 2
Magnetic Variation 7.405° W

METAR

RJAA 140230Z 31015KT 9999 FEW030 07/M06 Q1019 NOSIG

Decode

TAF

TAF RJAA 132306Z 1400/1506 33012KT 9999 FEW030= TAF RJBB 132305Z 1400/1506 34015KT 9999 FEW020 SCT050 BECMG 1415/1418 04008KT

Decode

Destination Runways

ID Width Length Bearing (true) Bearing (mag) Surface Threshold Offset Overrun Length
16L 196 ft / 60 m 7,162 ft / 2,183 m 149.61° 157.02° Asphalt 190 ft / 58 m 0 ft / 0 m
16R 196 ft / 60 m 13,142 ft / 4,006 m 149.61° 157.02° Asphalt 0 ft / 0 m 410 ft / 125 m
34L 196 ft / 60 m 13,142 ft / 4,006 m 329.62° 337.03° Asphalt 0 ft / 0 m 415 ft / 126 m
34R 196 ft / 60 m 7,162 ft / 2,183 m 329.62° 337.03° Asphalt 190 ft / 58 m 0 ft / 0 m

Approach Navaids

Runway Type Ident Frequency Range Bearing (true) Bearing (mag) Slope Elevation
16L Localiser ITM 110.70 MHz 18 nm / 33 km 149.62° 157.02° - 141 ft / 43 m (AMSL)
16L Glidescope ITM 110.70 MHz 10 nm / 19 km 149.62° 157.02° 3.00° 141 ft / 43 m (AMSL)
16L DME ITM 110.70 MHz 18 nm / 33 km - - - 145 ft / 44 m (AMSL)
16R Localiser IKF 111.50 MHz 18 nm / 33 km 149.63° 157.03° - 141 ft / 43 m (AMSL)
16R Glidescope IKF 111.50 MHz 10 nm / 19 km 149.62° 157.02° 3.00° 141 ft / 43 m (AMSL)
16R DME IKF 111.50 MHz 18 nm / 33 km - - - 145 ft / 44 m (AMSL)
34L Localiser IYQ 111.90 MHz 18 nm / 33 km 329.61° 337.01° - 141 ft / 43 m (AMSL)
34L Glidescope IYQ 111.90 MHz 10 nm / 19 km 329.62° 337.02° 3.00° 141 ft / 43 m (AMSL)
34L DME IYQ 111.90 MHz 18 nm / 33 km - - - 153 ft / 47 m (AMSL)
34R Localiser ITJ 110.90 MHz 18 nm / 33 km 329.62° 337.02° - 141 ft / 43 m (AMSL)
34R Glidescope ITJ 110.90 MHz 10 nm / 19 km 329.62° 337.02° 3.00° 141 ft / 43 m (AMSL)
34R DME ITJ 110.90 MHz 18 nm / 33 km - - - 148 ft / 45 m (AMSL)

Popular Alternatives